Time;durP1;ratioP1;P1;durP2;ratioP2;P2;SDS_P1;SDS_P2;PMS_P1;PMS_P2;Temp;Humidity;BMP_temperature;BMP_pressure;BME280_temperature;BME280_humidity;BME280_pressure;Samples;Min_cycle;Max_cycle;Signal;HPM_P1;HPM_P2
2023/03/30 00:00:12;;;;;;;16.70;4.90;;;;;;;-128.00;-1.00;-1.00;97970;295;1005377;-28
2023/03/30 00:02:42;;;;;;;13.60;5.40;;;;;;;-128.00;-1.00;-1.00;97847;295;1002889;-27
2023/03/30 00:05:09;;;;;;;18.30;6.40;;;;;;;-128.00;-1.00;-1.00;97869;288;1003273;-28
2023/03/30 00:07:37;;;;;;;16.60;5.70;;;;;;;-128.00;-1.00;-1.00;97984;295;1002917;-34
2023/03/30 00:10:03;;;;;;;22.60;8.50;;;;;;;-128.00;-1.00;-1.00;97976;295;1003088;-32
2023/03/30 00:12:29;;;;;;;15.30;5.70;;;;;;;-128.00;-1.00;-1.00;97877;296;1003106;-28
2023/03/30 00:14:55;;;;;;;17.80;6.20;;;;;;;-128.00;-1.00;-1.00;97973;295;1004484;-31
2023/03/30 00:17:21;;;;;;;21.00;5.70;;;;;;;-128.00;-1.00;-1.00;97946;295;1004354;-29
2023/03/30 00:19:47;;;;;;;15.50;5.00;;;;;;;-128.00;-1.00;-1.00;97858;288;1004280;-32
2023/03/30 00:22:13;;;;;;;9.70;4.10;;;;;;;-128.00;-1.00;-1.00;97981;288;1003368;-32
2023/03/30 00:24:38;;;;;;;12.70;4.80;;;;;;;-128.00;-1.00;-1.00;97909;295;1003410;-35
2023/03/30 00:27:04;;;;;;;8.20;4.10;;;;;;;-128.00;-1.00;-1.00;97940;295;1004386;-32
2023/03/30 00:29:29;;;;;;;7.60;3.80;;;;;;;-128.00;-1.00;-1.00;97875;295;1003201;-33
2023/03/30 00:31:55;;;;;;;10.30;5.20;;;;;;;-128.00;-1.00;-1.00;97995;295;1002923;-32
2023/03/30 00:34:21;;;;;;;3.60;2.50;;;;;;;-128.00;-1.00;-1.00;97874;295;1003312;-32
2023/03/30 00:36:48;;;;;;;10.30;4.10;;;;;;;-128.00;-1.00;-1.00;97791;296;1003515;-30
2023/03/30 00:39:13;;;;;;;8.10;3.80;;;;;;;-128.00;-1.00;-1.00;97930;295;1002911;-32
2023/03/30 00:41:39;;;;;;;11.30;3.70;;;;;;;-128.00;-1.00;-1.00;97881;295;1003272;-35
2023/03/30 00:44:07;;;;;;;11.50;3.20;;;;;;;-128.00;-1.00;-1.00;98011;295;1003753;-31
2023/03/30 00:46:33;;;;;;;7.40;2.90;;;;;;;-128.00;-1.00;-1.00;97863;295;1004146;-32
2023/03/30 00:49:03;;;;;;;4.10;2.30;;;;;;;-128.00;-1.00;-1.00;97938;296;1004803;-35
2023/03/30 00:51:29;;;;;;;6.30;2.50;;;;;;;-128.00;-1.00;-1.00;97880;296;1003158;-29
2023/03/30 00:53:58;;;;;;;7.00;2.90;;;;;;;-128.00;-1.00;-1.00;97806;296;1003082;-32
2023/03/30 00:56:25;;;;;;;11.90;3.30;;;;;;;-128.00;-1.00;-1.00;97929;296;1003187;-32
2023/03/30 00:58:51;;;;;;;5.10;3.10;;;;;;;-128.00;-1.00;-1.00;97827;296;1004298;-32
2023/03/30 01:01:27;;;;;;;4.20;2.40;;;;;;;-128.00;-1.00;-1.00;97767;296;1004276;-33
2023/03/30 01:03:54;;;;;;;4.80;2.70;;;;;;;-128.00;-1.00;-1.00;97779;296;1002657;-32
2023/03/30 01:06:23;;;;;;;5.10;2.80;;;;;;;-128.00;-1.00;-1.00;97901;284;1002681;-34
2023/03/30 01:08:51;;;;;;;7.30;2.90;;;;;;;-128.00;-1.00;-1.00;97853;296;1002744;-30
2023/03/30 01:11:16;;;;;;;4.60;3.00;;;;;;;-128.00;-1.00;-1.00;97901;296;1004129;-31
2023/03/30 01:13:44;;;;;;;6.60;2.90;;;;;;;-128.00;-1.00;-1.00;97921;296;1003491;-30
2023/03/30 01:16:26;;;;;;;4.10;2.70;;;;;;;-128.00;-1.00;-1.00;97926;285;1003602;-32
2023/03/30 01:19:19;;;;;;;4.00;2.20;;;;;;;-128.00;-1.00;-1.00;98067;296;1005613;-29
2023/03/30 01:22:14;;;;;;;7.60;2.10;;;;;;;-128.00;-1.00;-1.00;97760;296;1002969;-31
2023/03/30 01:25:03;;;;;;;7.70;3.60;;;;;;;-128.00;-1.00;-1.00;97813;296;1002923;-31
2023/03/30 01:27:47;;;;;;;5.60;3.20;;;;;;;-128.00;-1.00;-1.00;97807;296;1004821;-35
2023/03/30 01:30:28;;;;;;;5.40;2.30;;;;;;;-128.00;-1.00;-1.00;97922;296;1005051;-29
2023/03/30 01:33:17;;;;;;;3.90;2.40;;;;;;;-128.00;-1.00;-1.00;97974;296;1003492;-32
2023/03/30 01:36:06;;;;;;;4.10;2.90;;;;;;;-128.00;-1.00;-1.00;97934;296;1004895;-33
2023/03/30 01:38:54;;;;;;;4.80;3.00;;;;;;;-128.00;-1.00;-1.00;97900;296;1004836;-32
2023/03/30 01:41:28;;;;;;;3.80;2.40;;;;;;;-128.00;-1.00;-1.00;98091;288;1003025;-32
2023/03/30 01:44:02;;;;;;;5.10;2.20;;;;;;;-128.00;-1.00;-1.00;97883;296;1004907;-32
2023/03/30 01:46:30;;;;;;;3.70;1.90;;;;;;;-128.00;-1.00;-1.00;97925;296;1004167;-32
2023/03/30 01:49:18;;;;;;;5.10;2.60;;;;;;;-128.00;-1.00;-1.00;97818;285;1003508;-29
2023/03/30 01:51:47;;;;;;;5.40;2.40;;;;;;;-128.00;-1.00;-1.00;97811;286;1003119;-32
2023/03/30 01:54:16;;;;;;;14.20;2.30;;;;;;;-128.00;-1.00;-1.00;97957;288;1004151;-30
2023/03/30 01:56:47;;;;;;;4.30;2.70;;;;;;;-128.00;-1.00;-1.00;97909;296;1004321;-34
2023/03/30 01:59:24;;;;;;;4.20;2.10;;;;;;;-128.00;-1.00;-1.00;97983;296;1004143;-29
2023/03/30 02:01:52;;;;;;;4.80;2.20;;;;;;;-128.00;-1.00;-1.00;97860;296;1004619;-31
2023/03/30 02:04:20;;;;;;;3.60;2.10;;;;;;;-128.00;-1.00;-1.00;97779;284;1005723;-32
2023/03/30 02:06:57;;;;;;;4.50;2.30;;;;;;;-128.00;-1.00;-1.00;97822;296;1004083;-32
2023/03/30 02:09:23;;;;;;;5.70;2.20;;;;;;;-128.00;-1.00;-1.00;97968;295;1004380;-33
2023/03/30 02:11:51;;;;;;;3.40;2.30;;;;;;;-128.00;-1.00;-1.00;97859;297;1003518;-32
2023/03/30 02:14:18;;;;;;;4.00;2.70;;;;;;;-128.00;-1.00;-1.00;97915;296;1004180;-31
2023/03/30 02:16:48;;;;;;;4.50;2.40;;;;;;;-128.00;-1.00;-1.00;97940;296;1003431;-29
2023/03/30 02:19:14;;;;;;;4.70;2.80;;;;;;;-128.00;-1.00;-1.00;97961;296;1003129;-30
2023/03/30 02:21:41;;;;;;;6.30;2.80;;;;;;;-128.00;-1.00;-1.00;97875;285;1003830;-35
2023/03/30 02:24:08;;;;;;;5.50;2.90;;;;;;;-128.00;-1.00;-1.00;97913;297;1002605;-30
2023/03/30 02:26:35;;;;;;;6.40;2.50;;;;;;;-128.00;-1.00;-1.00;97935;296;1003025;-31
2023/03/30 02:29:01;;;;;;;4.20;1.90;;;;;;;-128.00;-1.00;-1.00;97850;296;1003111;-31
2023/03/30 02:31:27;;;;;;;7.40;2.50;;;;;;;-128.00;-1.00;-1.00;98006;296;1004425;-31
2023/03/30 02:34:07;;;;;;;6.60;2.90;;;;;;;-128.00;-1.00;-1.00;97863;288;1003165;-34
2023/03/30 02:36:53;;;;;;;7.80;1.50;;;;;;;-128.00;-1.00;-1.00;97872;296;1004136;-33
2023/03/30 02:39:42;;;;;;;4.80;2.30;;;;;;;-128.00;-1.00;-1.00;97834;296;1003457;-30
2023/03/30 02:42:18;;;;;;;6.30;2.40;;;;;;;-128.00;-1.00;-1.00;97862;288;1003204;-29
2023/03/30 02:44:50;;;;;;;7.00;3.90;;;;;;;-128.00;-1.00;-1.00;97857;296;1003043;-33
2023/03/30 02:47:35;;;;;;;5.00;3.00;;;;;;;-128.00;-1.00;-1.00;97869;296;1003526;-36
2023/03/30 02:50:20;;;;;;;6.20;2.60;;;;;;;-128.00;-1.00;-1.00;97873;296;1004032;-29
2023/03/30 02:52:58;;;;;;;;;;;;;;;-128.00;-1.00;-1.00;97948;296;1005060;-29
2023/03/30 02:55:33;;;;;;;5.20;2.70;;;;;;;-128.00;-1.00;-1.00;97899;296;1002346;-29
2023/03/30 02:58:11;;;;;;;5.90;2.60;;;;;;;-128.00;-1.00;-1.00;97942;296;1004560;-32
2023/03/30 03:00:45;;;;;;;7.90;3.90;;;;;;;-128.00;-1.00;-1.00;97854;297;1003680;-29
2023/03/30 03:03:30;;;;;;;6.30;3.60;;;;;;;-128.00;-1.00;-1.00;97928;288;1003517;-33
2023/03/30 03:05:56;;;;;;;5.00;3.20;;;;;;;-128.00;-1.00;-1.00;97824;296;1003736;-33
2023/03/30 03:08:22;;;;;;;3.60;2.20;;;;;;;-128.00;-1.00;-1.00;97892;284;1004926;-33
2023/03/30 03:10:50;;;;;;;6.80;3.40;;;;;;;-128.00;-1.00;-1.00;97901;285;1003326;-29
2023/03/30 03:13:17;;;;;;;6.00;2.90;;;;;;;-128.00;-1.00;-1.00;97893;288;1004079;-29
2023/03/30 03:15:45;;;;;;;6.80;3.30;;;;;;;-128.00;-1.00;-1.00;97916;284;1003437;-35
2023/03/30 03:18:11;;;;;;;11.70;3.50;;;;;;;-128.00;-1.00;-1.00;97915;296;1003445;-33
2023/03/30 03:20:38;;;;;;;5.50;3.20;;;;;;;-128.00;-1.00;-1.00;97819;296;1003173;-33
2023/03/30 03:23:04;;;;;;;14.30;4.00;;;;;;;-128.00;-1.00;-1.00;97952;288;1002871;-33
2023/03/30 03:25:30;;;;;;;5.40;3.60;;;;;;;-128.00;-1.00;-1.00;97912;296;1003371;-32
2023/03/30 03:27:56;;;;;;;10.00;4.60;;;;;;;-128.00;-1.00;-1.00;97949;296;1003498;-30
2023/03/30 03:30:22;;;;;;;8.30;3.30;;;;;;;-128.00;-1.00;-1.00;97814;288;1004185;-32
2023/03/30 03:32:48;;;;;;;10.30;4.40;;;;;;;-128.00;-1.00;-1.00;97886;296;1004636;-33
2023/03/30 03:35:14;;;;;;;9.20;4.20;;;;;;;-128.00;-1.00;-1.00;97884;296;1004047;-33
2023/03/30 03:37:40;;;;;;;10.70;4.00;;;;;;;-128.00;-1.00;-1.00;97961;284;1004362;-33
2023/03/30 03:40:07;;;;;;;9.10;4.40;;;;;;;-128.00;-1.00;-1.00;97828;284;1002762;-29
2023/03/30 03:42:32;;;;;;;9.10;4.20;;;;;;;-128.00;-1.00;-1.00;97959;296;1003246;-30
2023/03/30 03:44:58;;;;;;;6.40;3.70;;;;;;;-128.00;-1.00;-1.00;97908;296;1003519;-34
2023/03/30 03:47:24;;;;;;;9.30;4.40;;;;;;;-128.00;-1.00;-1.00;97910;296;1003990;-29
2023/03/30 03:49:50;;;;;;;8.30;4.50;;;;;;;-128.00;-1.00;-1.00;97780;284;1003337;-27
2023/03/30 03:52:16;;;;;;;8.40;3.90;;;;;;;-128.00;-1.00;-1.00;97809;296;1004432;-28
2023/03/30 03:54:42;;;;;;;5.50;3.70;;;;;;;-128.00;-1.00;-1.00;97975;296;1004724;-31
2023/03/30 03:57:08;;;;;;;3.70;2.90;;;;;;;-128.00;-1.00;-1.00;97856;284;1004232;-34
2023/03/30 03:59:33;;;;;;;6.90;4.20;;;;;;;-128.00;-1.00;-1.00;97840;296;1004419;-34
2023/03/30 04:02:00;;;;;;;12.90;4.20;;;;;;;-128.00;-1.00;-1.00;97898;296;1003787;-28
2023/03/30 04:04:25;;;;;;;8.30;4.10;;;;;;;-128.00;-1.00;-1.00;97809;296;1003247;-31
2023/03/30 04:06:51;;;;;;;6.70;3.30;;;;;;;-128.00;-1.00;-1.00;97827;296;1003588;-29
2023/03/30 04:09:18;;;;;;;6.50;3.90;;;;;;;-128.00;-1.00;-1.00;97823;285;1004632;-32
2023/03/30 04:11:44;;;;;;;7.10;4.70;;;;;;;-128.00;-1.00;-1.00;97824;284;1003681;-35
2023/03/30 04:14:09;;;;;;;7.70;4.40;;;;;;;-128.00;-1.00;-1.00;97883;285;1003760;-34
2023/03/30 04:16:36;;;;;;;8.50;3.80;;;;;;;-128.00;-1.00;-1.00;97794;285;1004245;-32
2023/03/30 04:19:02;;;;;;;8.90;4.60;;;;;;;-128.00;-1.00;-1.00;97814;296;1003950;-30
2023/03/30 04:21:28;;;;;;;5.20;3.60;;;;;;;-128.00;-1.00;-1.00;97966;284;1003133;-32
2023/03/30 04:23:54;;;;;;;8.70;4.40;;;;;;;-128.00;-1.00;-1.00;97965;296;1004093;-35
2023/03/30 04:26:20;;;;;;;5.20;3.40;;;;;;;-128.00;-1.00;-1.00;97864;296;1002447;-34
2023/03/30 04:28:46;;;;;;;5.00;3.50;;;;;;;-128.00;-1.00;-1.00;97900;285;1003007;-32
2023/03/30 04:31:11;;;;;;;6.70;3.90;;;;;;;-128.00;-1.00;-1.00;97899;296;1002933;-32
2023/03/30 04:33:44;;;;;;;6.70;4.10;;;;;;;-128.00;-1.00;-1.00;97814;296;1003803;-31
2023/03/30 05:14:54;;;;;;;11.20;3.80;;;;;;;-101.57;17.64;19803.97;98192;298;1544874;-36
2023/03/30 05:17:19;;;;;;;6.40;3.90;;;;;;;-128.00;-1.00;-1.00;97561;298;1003874;-30
2023/03/30 05:19:46;;;;;;;6.60;3.90;;;;;;;-128.00;-1.00;-1.00;97815;284;1002742;-29
2023/03/30 05:22:12;;;;;;;6.00;3.90;;;;;;;-128.00;-1.00;-1.00;97789;284;1002561;-31
2023/03/30 05:24:38;;;;;;;7.10;3.80;;;;;;;-128.00;-1.00;-1.00;97825;296;1002814;-30
2023/03/30 05:27:04;;;;;;;6.20;3.40;;;;;;;-128.00;-1.00;-1.00;97755;284;1002883;-28
2023/03/30 05:29:30;;;;;;;4.80;3.70;;;;;;;-128.00;-1.00;-1.00;97800;296;1004742;-33
2023/03/30 05:31:55;;;;;;;6.80;3.90;;;;;;;-128.00;-1.00;-1.00;97787;296;1004408;-35
2023/03/30 05:34:21;;;;;;;9.70;4.30;;;;;;;-128.00;-1.00;-1.00;97807;296;1003626;-34
2023/03/30 05:36:47;;;;;;;7.30;4.70;;;;;;;-128.00;-1.00;-1.00;97846;285;1003489;-34
2023/03/30 05:39:13;;;;;;;8.30;3.60;;;;;;;-128.00;-1.00;-1.00;97870;296;1003447;-31
2023/03/30 05:41:38;;;;;;;8.80;3.50;;;;;;;-128.00;-1.00;-1.00;97783;296;1003092;-32
2023/03/30 05:44:05;;;;;;;10.00;4.50;;;;;;;-128.00;-1.00;-1.00;97882;284;1002730;-30
2023/03/30 05:46:30;;;;;;;13.80;5.80;;;;;;;-128.00;-1.00;-1.00;97877;296;1002637;-30
2023/03/30 05:48:56;;;;;;;9.50;3.30;;;;;;;-128.00;-1.00;-1.00;97776;296;1004538;-34
2023/03/30 05:51:22;;;;;;;5.90;4.00;;;;;;;-128.00;-1.00;-1.00;97750;296;1004730;-33
2023/03/30 05:53:48;;;;;;;7.60;4.00;;;;;;;-128.00;-1.00;-1.00;97823;298;1004569;-37
2023/03/30 05:56:14;;;;;;;6.00;3.40;;;;;;;-128.00;-1.00;-1.00;97642;300;1003849;-32
2023/03/30 05:58:40;;;;;;;6.70;3.70;;;;;;;-128.00;-1.00;-1.00;97904;284;1002910;-35
2023/03/30 06:01:08;;;;;;;10.00;4.80;;;;;;;-128.00;-1.00;-1.00;97864;284;1003797;-35
2023/03/30 06:03:34;;;;;;;6.00;3.90;;;;;;;-128.00;-1.00;-1.00;97859;296;1005411;-34
2023/03/30 06:05:59;;;;;;;7.80;5.00;;;;;;;-128.00;-1.00;-1.00;97937;296;1004673;-36
2023/03/30 06:08:25;;;;;;;6.90;3.90;;;;;;;-128.00;-1.00;-1.00;97844;296;1003706;-30
2023/03/30 06:10:55;;;;;;;6.10;2.90;;;;;;;-128.00;-1.00;-1.00;97935;296;1003340;-33
2023/03/30 06:13:20;;;;;;;8.70;3.40;;;;;;;-128.00;-1.00;-1.00;97960;284;1003963;-30
2023/03/30 06:15:46;;;;;;;6.50;3.70;;;;;;;-128.00;-1.00;-1.00;97763;296;1002609;-30
2023/03/30 06:18:12;;;;;;;5.40;3.50;;;;;;;-128.00;-1.00;-1.00;97889;296;1003299;-32
2023/03/30 06:20:38;;;;;;;6.70;4.00;;;;;;;-128.00;-1.00;-1.00;97798;296;1004767;-33
2023/03/30 06:23:03;;;;;;;10.60;3.60;;;;;;;-128.00;-1.00;-1.00;97823;296;1003082;-34
2023/03/30 06:25:30;;;;;;;8.30;4.40;;;;;;;-128.00;-1.00;-1.00;68301;298;3096507;-35
2023/03/30 06:27:56;;;;;;;5.60;4.10;;;;;;;-128.00;-1.00;-1.00;24451;296;7504810;-31
2023/03/30 06:30:22;;;;;;;8.90;4.10;;;;;;;-128.00;-1.00;-1.00;18881;320;7504786;-31
2023/03/30 06:32:49;;;;;;;5.90;3.40;;;;;;;-128.00;-1.00;-1.00;18871;341;7505096;-35
2023/03/30 06:35:15;;;;;;;9.20;4.10;;;;;;;-128.00;-1.00;-1.00;18851;337;7505131;-35
2023/03/30 06:37:42;;;;;;;9.70;4.80;;;;;;;-128.00;-1.00;-1.00;18865;296;7504497;-32
2023/03/30 06:40:14;;;;;;;6.10;3.70;;;;;;;-128.00;-1.00;-1.00;18882;296;7504326;-31
2023/03/30 06:42:41;;;;;;;6.50;4.80;;;;;;;-128.00;-1.00;-1.00;18472;300;7504785;-31
2023/03/30 06:45:07;;;;;;;5.90;3.90;;;;;;;-128.00;-1.00;-1.00;18470;349;7504977;-34
2023/03/30 06:47:33;;;;;;;7.90;3.90;;;;;;;-128.00;-1.00;-1.00;18442;296;7505978;-31
2023/03/30 06:49:58;;;;;;;3.30;2.70;;;;;;;-128.00;-1.00;-1.00;18483;297;7504483;-30
2023/03/30 06:52:25;;;;;;;5.90;4.00;;;;;;;-128.00;-1.00;-1.00;18843;308;7504291;-35
2023/03/30 06:54:51;;;;;;;7.00;3.30;;;;;;;-128.00;-1.00;-1.00;18854;301;7504381;-32
2023/03/30 06:57:17;;;;;;;7.20;4.30;;;;;;;-128.00;-1.00;-1.00;18833;343;7504343;-34
2023/03/30 06:59:43;;;;;;;7.80;4.30;;;;;;;-128.00;-1.00;-1.00;18875;316;7504139;-31
2023/03/30 07:02:15;;;;;;;6.30;4.30;;;;;;;-128.00;-1.00;-1.00;18888;296;7504785;-34
2023/03/30 07:04:41;;;;;;;3.80;2.30;;;;;;;-128.00;-1.00;-1.00;18477;296;7505974;-32
2023/03/30 07:07:07;;;;;;;10.20;3.20;;;;;;;-128.00;-1.00;-1.00;18483;297;7504781;-31
2023/03/30 07:09:33;;;;;;;5.30;3.00;;;;;;;-128.00;-1.00;-1.00;18480;296;7504635;-34
2023/03/30 07:11:59;;;;;;;3.70;2.40;;;;;;;-128.00;-1.00;-1.00;18437;298;7504581;-33
2023/03/30 07:14:25;;;;;;;4.30;1.90;;;;;;;-128.00;-1.00;-1.00;18459;298;7504657;-30
2023/03/30 07:16:51;;;;;;;4.50;2.50;;;;;;;-128.00;-1.00;-1.00;18498;296;7505690;-31
2023/03/30 07:19:18;;;;;;;8.60;3.90;;;;;;;-128.00;-1.00;-1.00;18474;296;7506032;-31
2023/03/30 07:21:44;;;;;;;4.70;3.20;;;;;;;-128.00;-1.00;-1.00;18471;298;7506761;-31
2023/03/30 07:24:10;;;;;;;5.40;2.80;;;;;;;-128.00;-1.00;-1.00;18850;349;7504203;-34
2023/03/30 07:26:36;;;;;;;4.30;3.30;;;;;;;-128.00;-1.00;-1.00;18872;296;7505396;-31
2023/03/30 07:29:03;;;;;;;5.10;3.10;;;;;;;-128.00;-1.00;-1.00;18853;298;7504496;-33
2023/03/30 07:31:29;;;;;;;8.20;3.30;;;;;;;-128.00;-1.00;-1.00;18465;296;7504267;-31
2023/03/30 07:33:55;;;;;;;3.90;2.70;;;;;;;-128.00;-1.00;-1.00;18469;297;7504609;-31
2023/03/30 07:36:21;;;;;;;14.80;3.20;;;;;;;-128.00;-1.00;-1.00;18486;296;7504583;-30
2023/03/30 07:38:47;;;;;;;8.50;3.70;;;;;;;-128.00;-1.00;-1.00;18459;320;7504911;-33
2023/03/30 07:41:13;;;;;;;7.20;3.00;;;;;;;-128.00;-1.00;-1.00;18482;341;7504957;-31
2023/03/30 07:43:39;;;;;;;9.90;2.90;;;;;;;-128.00;-1.00;-1.00;18466;345;7504649;-35
2023/03/30 07:46:06;;;;;;;3.80;2.70;;;;;;;-128.00;-1.00;-1.00;18448;297;7505689;-31
2023/03/30 07:48:32;;;;;;;4.70;3.20;;;;;;;-128.00;-1.00;-1.00;18472;297;7505087;-36
2023/03/30 07:51:00;;;;;;;9.10;3.30;;;;;;;-128.00;-1.00;-1.00;18480;298;7504219;-31
2023/03/30 07:53:25;;;;;;;4.60;2.80;;;;;;;-128.00;-1.00;-1.00;18463;296;7506563;-31
2023/03/30 07:55:51;;;;;;;6.90;3.90;;;;;;;-128.00;-1.00;-1.00;18896;296;7504641;-31
2023/03/30 07:58:18;;;;;;;5.60;3.00;;;;;;;-128.00;-1.00;-1.00;18872;296;7504919;-36
2023/03/30 08:00:46;;;;;;;5.60;3.50;;;;;;;-128.00;-1.00;-1.00;18854;298;7504340;-34
2023/03/30 08:03:12;;;;;;;6.40;4.00;;;;;;;-128.00;-1.00;-1.00;18489;285;7506662;-35
2023/03/30 08:05:38;;;;;;;15.20;3.30;;;;;;;-128.00;-1.00;-1.00;18461;296;7504636;-35
2023/03/30 08:08:04;;;;;;;4.50;3.10;;;;;;;-128.00;-1.00;-1.00;18856;349;7504404;-31
2023/03/30 08:10:30;;;;;;;3.80;2.50;;;;;;;-128.00;-1.00;-1.00;18852;296;7504679;-35
2023/03/30 08:12:56;;;;;;;3.40;2.20;;;;;;;-128.00;-1.00;-1.00;18857;297;7504462;-31
2023/03/30 08:15:23;;;;;;;4.30;2.70;;;;;;;-128.00;-1.00;-1.00;18867;349;7505502;-34
2023/03/30 08:17:49;;;;;;;3.70;2.90;;;;;;;-128.00;-1.00;-1.00;18865;296;7505360;-31
2023/03/30 08:20:16;;;;;;;7.70;3.30;;;;;;;-128.00;-1.00;-1.00;18846;298;7504678;-35
2023/03/30 08:22:42;;;;;;;5.60;3.10;;;;;;;-128.00;-1.00;-1.00;18872;341;7505400;-35
2023/03/30 08:25:08;;;;;;;4.70;2.70;;;;;;;-128.00;-1.00;-1.00;18898;296;7505214;-31
2023/03/30 08:27:35;;;;;;;4.50;2.50;;;;;;;-128.00;-1.00;-1.00;18874;289;7505032;-31
2023/03/30 08:30:01;;;;;;;5.30;2.40;;;;;;;-128.00;-1.00;-1.00;18877;296;7505327;-32
2023/03/30 08:32:27;;;;;;;6.10;2.80;;;;;;;-128.00;-1.00;-1.00;18862;296;7505101;-36
2023/03/30 08:34:53;;;;;;;8.80;2.80;;;;;;;-128.00;-1.00;-1.00;18821;343;7504715;-35
2023/03/30 08:37:20;;;;;;;9.00;2.50;;;;;;;-128.00;-1.00;-1.00;18883;296;7504406;-32
2023/03/30 08:39:46;;;;;;;3.30;2.50;;;;;;;-128.00;-1.00;-1.00;18859;296;7504201;-35
2023/03/30 08:42:34;;;;;;;6.60;2.40;;;;;;;-128.00;-1.00;-1.00;18861;296;7505134;-32
2023/03/30 08:45:04;;;;;;;4.10;2.70;;;;;;;-128.00;-1.00;-1.00;18477;297;7504256;-35
2023/03/30 08:47:35;;;;;;;4.00;2.40;;;;;;;-128.00;-1.00;-1.00;18450;298;7504908;-31
2023/03/30 08:50:07;;;;;;;5.60;3.00;;;;;;;-128.00;-1.00;-1.00;18426;298;7504287;-31
2023/03/30 08:52:32;;;;;;;5.20;2.90;;;;;;;-128.00;-1.00;-1.00;18445;323;7504343;-31
2023/03/30 08:54:58;;;;;;;3.70;2.20;;;;;;;-128.00;-1.00;-1.00;18487;297;7504435;-32
2023/03/30 08:57:40;;;;;;;2.90;2.40;;;;;;;-128.00;-1.00;-1.00;18475;297;7504330;-32
2023/03/30 09:00:18;;;;;;;3.60;2.20;;;;;;;-128.00;-1.00;-1.00;18489;289;7504791;-36
2023/03/30 09:02:46;;;;;;;2.90;1.90;;;;;;;-128.00;-1.00;-1.00;18465;296;7506260;-33
2023/03/30 09:05:30;;;;;;;5.60;2.70;;;;;;;-128.00;-1.00;-1.00;18457;320;7506482;-32
2023/03/30 09:08:13;;;;;;;4.10;2.40;;;;;;;-128.00;-1.00;-1.00;18472;304;7504610;-34
2023/03/30 09:10:41;;;;;;;3.20;2.60;;;;;;;-128.00;-1.00;-1.00;18470;297;7505979;-33
2023/03/30 09:13:10;;;;;;;3.20;1.90;;;;;;;-128.00;-1.00;-1.00;18421;298;7505209;-36
2023/03/30 09:15:43;;;;;;;9.90;2.40;;;;;;;-128.00;-1.00;-1.00;18480;349;7504842;-32
2023/03/30 09:18:15;;;;;;;3.10;2.30;;;;;;;-128.00;-1.00;-1.00;18478;296;7506145;-32
2023/03/30 09:20:41;;;;;;;10.20;2.90;;;;;;;-128.00;-1.00;-1.00;18491;296;7505160;-32
2023/03/30 09:23:13;;;;;;;2.80;1.80;;;;;;;-128.00;-1.00;-1.00;18461;296;7505063;-32
2023/03/30 09:25:57;;;;;;;5.40;2.40;;;;;;;-128.00;-1.00;-1.00;18484;296;7504394;-31
2023/03/30 09:28:30;;;;;;;2.40;1.50;;;;;;;-128.00;-1.00;-1.00;18475;304;7504343;-35
2023/03/30 09:31:15;;;;;;;12.60;2.30;;;;;;;-128.00;-1.00;-1.00;18440;296;7504623;-30
2023/03/30 09:34:05;;;;;;;5.40;2.10;;;;;;;-128.00;-1.00;-1.00;18487;298;7505797;-34
2023/03/30 09:36:37;;;;;;;8.30;2.50;;;;;;;-128.00;-1.00;-1.00;18478;349;7504272;-33
2023/03/30 09:39:10;;;;;;;2.80;1.60;;;;;;;-128.00;-1.00;-1.00;18479;305;7504237;-33
2023/03/30 09:42:07;;;;;;;2.40;1.90;;;;;;;-128.00;-1.00;-1.00;18462;296;7506589;-36
2023/03/30 09:44:57;;;;;;;4.20;1.30;;;;;;;-128.00;-1.00;-1.00;18455;298;7504687;-34
2023/03/30 09:47:32;;;;;;;2.30;1.90;;;;;;;-128.00;-1.00;-1.00;18482;296;7504744;-35
2023/03/30 09:49:59;;;;;;;2.70;2.20;;;;;;;-128.00;-1.00;-1.00;18459;296;7506040;-32
2023/03/30 09:52:26;;;;;;;10.00;3.30;;;;;;;-128.00;-1.00;-1.00;18457;298;7506028;-36
2023/03/30 09:54:52;;;;;;;4.30;2.80;;;;;;;-128.00;-1.00;-1.00;18474;308;7504777;-35
2023/03/30 09:57:23;;;;;;;2.80;1.80;;;;;;;-128.00;-1.00;-1.00;18461;296;7504864;-35
2023/03/30 09:59:48;;;;;;;2.40;1.90;;;;;;;-128.00;-1.00;-1.00;18470;296;7504552;-35
2023/03/30 10:02:18;;;;;;;5.90;3.20;;;;;;;-128.00;-1.00;-1.00;18456;298;7505076;-31
2023/03/30 10:04:56;;;;;;;5.10;2.20;;;;;;;-128.00;-1.00;-1.00;18452;296;7506163;-35
2023/03/30 10:07:26;;;;;;;7.20;2.30;;;;;;;-128.00;-1.00;-1.00;18492;341;7504271;-31
2023/03/30 10:09:52;;;;;;;2.70;2.40;;;;;;;-128.00;-1.00;-1.00;18465;297;7505133;-31
2023/03/30 10:12:18;;;;;;;3.80;2.20;;;;;;;-128.00;-1.00;-1.00;18472;296;7505719;-35
2023/03/30 10:14:44;;;;;;;5.10;2.50;;;;;;;-128.00;-1.00;-1.00;18481;296;7506486;-31
2023/03/30 10:17:17;;;;;;;3.30;2.60;;;;;;;-128.00;-1.00;-1.00;18445;296;7504633;-35
2023/03/30 10:19:43;;;;;;;4.50;2.60;;;;;;;-128.00;-1.00;-1.00;18445;298;7505608;-32
2023/03/30 10:22:16;;;;;;;3.20;2.10;;;;;;;-128.00;-1.00;-1.00;18874;301;7506446;-32
2023/03/30 10:24:47;;;;;;;;;;;;;;;-128.00;-1.00;-1.00;18463;298;7504461;-31
2023/03/30 10:27:13;;;;;;;3.80;2.60;;;;;;;-128.00;-1.00;-1.00;18442;299;7506336;-36
2023/03/30 10:29:45;;;;;;;3.80;2.20;;;;;;;-128.00;-1.00;-1.00;18433;296;7504328;-31
2023/03/30 10:32:17;;;;;;;3.10;2.20;;;;;;;-128.00;-1.00;-1.00;18455;296;7505133;-32
2023/03/30 10:34:44;;;;;;;3.50;2.60;;;;;;;-128.00;-1.00;-1.00;18437;338;7505252;-32
2023/03/30 10:37:13;;;;;;;2.10;1.50;;;;;;;-128.00;-1.00;-1.00;18451;300;7504341;-35
2023/03/30 10:39:40;;;;;;;4.10;2.80;;;;;;;-128.00;-1.00;-1.00;18438;296;7506448;-32
2023/03/30 10:42:06;;;;;;;5.10;1.90;;;;;;;-128.00;-1.00;-1.00;18446;298;7504366;-32
2023/03/30 10:44:40;;;;;;;3.80;2.20;;;;;;;-128.00;-1.00;-1.00;18464;349;7504622;-32
2023/03/30 10:47:32;;;;;;;2.00;1.70;;;;;;;-128.00;-1.00;-1.00;18442;320;7506443;-36
2023/03/30 10:50:15;;;;;;;3.60;3.00;;;;;;;-128.00;-1.00;-1.00;18468;296;7506073;-37
2023/03/30 10:53:05;;;;;;;3.90;1.70;;;;;;;-128.00;-1.00;-1.00;18482;296;7504904;-31
2023/03/30 10:55:49;;;;;;;15.20;1.90;;;;;;;-128.00;-1.00;-1.00;18466;321;7506545;-36
2023/03/30 10:58:36;;;;;;;2.60;1.70;;;;;;;-128.00;-1.00;-1.00;18437;298;7506760;-36
2023/03/30 11:01:20;;;;;;;6.80;2.30;;;;;;;-128.00;-1.00;-1.00;18477;296;7505351;-32
2023/03/30 11:03:50;;;;;;;2.10;1.80;;;;;;;-128.00;-1.00;-1.00;18457;305;7504135;-32
2023/03/30 11:46:56;;;;;;;3.70;1.60;;;;;;;-99.21;9.55;19734.50;98238;292;1547372;-34
2023/03/30 11:49:29;;;;;;;3.10;2.20;;;;;;;-128.00;-1.00;-1.00;96854;294;1004861;-34
2023/03/30 11:52:20;;;;;;;3.80;2.20;;;;;;;-128.00;-1.00;-1.00;97924;293;1002839;-32
2023/03/30 11:54:57;;;;;;;2.60;1.40;;;;;;;-128.00;-1.00;-1.00;98153;293;1003041;-34
2023/03/30 11:57:39;;;;;;;9.10;1.90;;;;;;;-128.00;-1.00;-1.00;97990;293;1003904;-34
2023/03/30 12:00:29;;;;;;;5.30;2.40;;;;;;;-128.00;-1.00;-1.00;98107;293;1003276;-34
2023/03/30 12:03:07;;;;;;;2.30;1.50;;;;;;;-128.00;-1.00;-1.00;98061;293;1003664;-33
2023/03/30 12:05:45;;;;;;;6.00;2.70;;;;;;;-128.00;-1.00;-1.00;98065;293;1003587;-32
2023/03/30 12:08:16;;;;;;;3.20;1.90;;;;;;;-128.00;-1.00;-1.00;98099;293;1003750;-34
2023/03/30 12:10:42;;;;;;;2.80;1.60;;;;;;;-128.00;-1.00;-1.00;97882;293;1004036;-30
2023/03/30 12:13:11;;;;;;;6.70;3.20;;;;;;;-128.00;-1.00;-1.00;98035;293;1003595;-31
2023/03/30 12:15:57;;;;;;;5.40;1.90;;;;;;;-128.00;-1.00;-1.00;98011;293;1003215;-36
2023/03/30 12:18:37;;;;;;;5.90;2.10;;;;;;;-128.00;-1.00;-1.00;98023;293;1005019;-31
2023/03/30 12:21:32;;;;;;;4.20;2.10;;;;;;;-128.00;-1.00;-1.00;98043;293;1003104;-30
2023/03/30 12:24:17;;;;;;;3.80;1.90;;;;;;;-128.00;-1.00;-1.00;98022;293;1004461;-33
2023/03/30 12:26:43;;;;;;;3.80;2.20;;;;;;;-128.00;-1.00;-1.00;98087;293;1003526;-37
2023/03/30 12:29:11;;;;;;;5.40;3.10;;;;;;;-128.00;-1.00;-1.00;98049;293;1004996;-31
2023/03/30 12:31:50;;;;;;;4.40;1.40;;;;;;;-128.00;-1.00;-1.00;98060;293;1003508;-34
2023/03/30 12:34:16;;;;;;;3.00;1.10;;;;;;;-128.00;-1.00;-1.00;97942;293;1003905;-36
2023/03/30 12:37:04;;;;;;;5.80;2.00;;;;;;;-128.00;-1.00;-1.00;98004;293;1003167;-32
2023/03/30 12:39:34;;;;;;;12.80;2.10;;;;;;;-128.00;-1.00;-1.00;98011;293;1003418;-34
2023/03/30 12:42:06;;;;;;;8.00;1.40;;;;;;;-128.00;-1.00;-1.00;97938;293;1003274;-31
2023/03/30 12:44:56;;;;;;;2.30;1.60;;;;;;;-128.00;-1.00;-1.00;98064;293;1004615;-36
2023/03/30 12:47:32;;;;;;;5.70;1.90;;;;;;;-128.00;-1.00;-1.00;98034;293;1002855;-34
2023/03/30 12:50:17;;;;;;;9.40;1.50;;;;;;;-128.00;-1.00;-1.00;98058;293;1003058;-35
2023/03/30 12:53:15;;;;;;;24.80;1.10;;;;;;;-128.00;-1.00;-1.00;97913;294;1003664;-30
2023/03/30 12:55:56;;;;;;;1.30;0.70;;;;;;;-128.00;-1.00;-1.00;97987;293;1004406;-36
2023/03/30 12:58:37;;;;;;;4.20;1.30;;;;;;;-128.00;-1.00;-1.00;97887;287;1004615;-32
2023/03/30 13:01:19;;;;;;;5.00;2.00;;;;;;;-128.00;-1.00;-1.00;97911;293;1002890;-30
2023/03/30 13:03:51;;;;;;;1.40;1.00;;;;;;;-128.00;-1.00;-1.00;97947;294;1002926;-34
2023/03/30 13:06:42;;;;;;;2.20;1.50;;;;;;;-128.00;-1.00;-1.00;98028;293;1003255;-31